Accueil
METAR-TAF:

METAR-TAF

Aéroports :

Lynchburg Regional Airport (Preston Glenn Field)

Lynchburg, Virginie, États-Unis

latitude: 37-19-15N, longitude: 079-12-24W, altitude: 285 m

Observation

Le bulletin a été fait il y a 25 minutes, à 23:54 UTC
Température 29°C
Humidité 62%
Pression 1013 hPa
Visibilité: 16.1 km
Nuages fragmentés à une hauteur de 4600 ft
Nuages fragmentés à une hauteur de 6500 ft

METAR: KLYH 092354Z 10SM BKN046 BKN065 29/21 A2992 RMK AO2 LTG DSNT S SLP120 T02940206 10328 20294 55001

Heure: 20:19 (00:19 UTC)

Prévision

Le bulletin a été fait il y a 59 minutes, à 23:20 UTC
Prévision valable du 10 à 00 UTC au 10 à 24 UTC
Vent 4 kt de nord/nord-est
Visibilité: 10 km
Ciel clair
A partir de 10 à 1800 UTC
Vent 3 kt de nord/nord-est
Visibilité: 10 km
Nuages fragmentés à une hauteur de 7000 ft

TAF: KLYH 092320Z 1000/1024 03004KT P6SM SKC FM101800 02003KT P6SM BKN070

Observations et prévisions météorologiques de plus de 4000 aéroports (messages METAR et TAF).

Les stations disponibles sont représentées par des disques jaunes et rouges sur la carte.

Passer la souris dessus pour voir le nom de la station.

Cliquer dessus pour voir les observations et prévisions météorologiques.

Pour changer de carte: cliquez sur les boutons verts avec une croix noire pour zoomer, sur le bouton vert avec un tiret pour effectuer un zoom arrière, ou sur les flèches vertes pour les cartes adjacentes.


METAR-TAF: